Time;durP1;ratioP1;P1;durP2;ratioP2;P2;SDS_P1;SDS_P2;PMS_P1;PMS_P2;Temp;Humidity;BMP_temperature;BMP_pressure;BME280_temperature;BME280_humidity;BME280_pressure;Samples;Min_cycle;Max_cycle;Signal;HPM_P1;HPM_P2
2022/05/06 04:03:19;;;;;;;13.10;9.05;;;;;;;17.57;62.94;100979.13;5605474;31;78092;-55
2022/05/06 04:06:22;;;;;;;10.48;8.70;;;;;;;17.57;62.94;100979.13;5583614;32;34090;-55
2022/05/06 04:09:25;;;;;;;11.30;8.50;;;;;;;17.13;63.09;100984.31;5583605;31;33300;-55
2022/05/06 04:12:28;;;;;;;9.43;8.40;;;;;;;17.13;62.64;100988.94;5583636;31;33186;-55
2022/05/06 04:15:33;;;;;;;11.10;8.00;;;;;;;17.16;63.85;100991.03;5583648;32;34095;-55
2022/05/06 04:18:35;;;;;;;9.68;8.60;;;;;;;17.38;63.98;100990.19;5583754;31;33462;-55
2022/05/06 04:24:59;;;;;;;11.88;7.55;;;;;;;17.50;62.12;101003.16;5583489;31;33496;-55
2022/05/06 04:28:02;;;;;;;10.13;8.38;;;;;;;17.47;62.83;101007.28;5572398;31;33164;-55
2022/05/06 04:31:05;;;;;;;11.95;7.78;;;;;;;17.60;66.12;101009.13;5563943;32;33181;-55
2022/05/06 04:34:08;;;;;;;9.93;7.78;;;;;;;17.67;66.03;101011.38;5563708;32;33343;-56
2022/05/06 04:37:11;;;;;;;8.35;7.25;;;;;;;17.74;66.85;101016.34;5563931;32;33432;-55
2022/05/06 04:40:13;;;;;;;11.60;8.40;;;;;;;17.83;66.20;101012.59;5563831;32;34529;-55
2022/05/06 04:43:20;;;;;;;13.60;7.37;;;;;;;17.88;62.21;101014.38;5563826;32;33234;-56
2022/05/06 04:46:23;;;;;;;10.35;8.07;;;;;;;17.82;62.33;101011.00;5563676;32;33347;-55
2022/05/06 04:49:27;;;;;;;9.60;7.72;;;;;;;17.84;64.74;101016.09;5563698;32;33434;-55
2022/05/06 04:52:29;;;;;;;10.02;8.77;;;;;;;17.90;67.19;101022.19;5563353;32;34218;-55
2022/05/06 04:55:33;;;;;;;8.73;7.82;;;;;;;17.86;59.37;101023.94;5563221;32;33641;-55
2022/05/06 04:58:35;;;;;;;9.57;7.70;;;;;;;17.98;63.15;101032.25;5563703;32;33760;-55
2022/05/06 05:01:39;;;;;;;11.75;7.57;;;;;;;17.96;60.12;101039.94;5565152;32;33669;-55
2022/05/06 05:04:43;;;;;;;9.77;7.82;;;;;;;18.01;60.36;101039.78;5580837;32;34487;-55
2022/05/06 05:07:45;;;;;;;9.95;8.55;;;;;;;17.95;60.26;101032.91;5583202;31;33368;-55
2022/05/06 05:10:48;;;;;;;12.82;8.77;;;;;;;18.10;61.04;101043.31;5582815;31;34303;-55
2022/05/06 05:13:52;;;;;;;10.35;7.87;;;;;;;18.14;63.58;101033.44;5573662;31;33420;-55
2022/05/06 05:16:55;;;;;;;13.35;8.20;;;;;;;18.17;63.34;101027.37;5569950;31;33327;-55
2022/05/06 05:19:57;;;;;;;9.60;8.60;;;;;;;18.18;63.45;101033.59;5569970;31;33558;-56
2022/05/06 05:23:01;;;;;;;10.32;8.15;;;;;;;18.42;63.89;101033.19;5569703;32;34609;-56
2022/05/06 05:26:04;;;;;;;10.93;8.20;;;;;;;18.17;60.03;101034.72;5569493;31;34535;-55
2022/05/06 05:29:06;;;;;;;9.63;8.50;;;;;;;18.15;60.88;101036.97;5564877;32;33570;-55
2022/05/06 05:32:10;;;;;;;9.68;8.38;;;;;;;18.18;61.46;101039.03;5563830;32;32612;-55
2022/05/06 05:35:13;;;;;;;10.88;8.32;;;;;;;18.12;62.27;101034.88;5549389;32;33384;-56
2022/05/06 05:38:16;;;;;;;11.40;8.05;;;;;;;18.04;60.88;101039.16;5560226;32;34084;-55
2022/05/06 05:41:19;;;;;;;10.77;7.80;;;;;;;18.19;61.42;101038.72;5569068;31;33458;-55
2022/05/06 05:51:06;;;;;;;12.40;8.55;;;;;;;18.35;63.11;101032.88;5568801;31;33129;-55
2022/05/06 05:54:09;;;;;;;10.45;8.45;;;;;;;18.46;63.19;101034.94;5568622;32;34277;-55
2022/05/06 05:57:12;;;;;;;12.85;8.20;;;;;;;18.49;62.48;101047.88;5568051;32;31738;-55
2022/05/06 06:00:15;;;;;;;14.23;8.50;;;;;;;18.31;65.25;101048.97;5568608;32;34175;-55
2022/05/06 06:03:20;;;;;;;11.15;8.32;;;;;;;18.38;62.93;101048.53;5568139;32;34077;-56
2022/05/06 06:06:23;;;;;;;10.68;8.50;;;;;;;18.45;61.38;101052.34;5568599;32;33606;-55
2022/05/06 06:09:27;;;;;;;15.10;8.60;;;;;;;18.48;60.61;101059.06;5568561;31;34453;-56
2022/05/06 06:12:31;;;;;;;15.80;9.45;;;;;;;18.43;61.53;101059.22;5566968;32;34073;-55
2022/05/06 06:15:34;;;;;;;10.63;9.05;;;;;;;18.51;63.01;101061.97;5559634;31;34102;-55
2022/05/06 06:18:36;;;;;;;10.52;8.25;;;;;;;18.51;61.23;101064.66;5560117;32;33652;-55
2022/05/06 06:21:40;;;;;;;11.32;8.43;;;;;;;18.55;60.01;101060.19;5564934;31;34146;-55
2022/05/06 06:24:42;;;;;;;13.88;9.18;;;;;;;18.36;60.46;101058.88;5567354;32;34424;-55
2022/05/06 06:27:45;;;;;;;11.55;9.07;;;;;;;18.39;61.23;101060.97;5567585;31;34330;-56
2022/05/06 06:30:49;;;;;;;14.13;8.18;;;;;;;18.51;63.77;101070.09;5567248;32;33780;-55
2022/05/06 06:33:53;;;;;;;14.57;9.50;;;;;;;18.48;60.67;101064.50;5565825;31;33628;-55
2022/05/06 06:36:58;;;;;;;10.98;9.75;;;;;;;18.47;60.87;101060.97;5567998;31;33271;-56
2022/05/06 06:40:01;;;;;;;11.75;9.85;;;;;;;18.59;61.27;101071.22;5568330;32;33250;-56
2022/05/06 06:43:05;;;;;;;12.43;9.73;;;;;;;18.66;60.43;101062.59;5568248;32;34215;-55
2022/05/06 06:46:08;;;;;;;16.40;9.68;;;;;;;18.77;58.34;101064.75;5567066;32;33240;-54
2022/05/06 06:49:11;;;;;;;13.43;9.80;;;;;;;18.74;61.65;101057.22;5566595;32;33410;-55
2022/05/06 06:52:14;;;;;;;15.70;10.88;;;;;;;18.75;58.94;101058.81;5568314;31;34509;-55
2022/05/06 06:55:17;;;;;;;14.65;10.93;;;;;;;18.83;60.25;101061.84;5566760;32;34301;-55
2022/05/06 06:58:20;;;;;;;13.50;10.15;;;;;;;18.91;62.12;101058.34;5563586;32;34344;-55
2022/05/06 07:01:22;;;;;;;15.30;11.20;;;;;;;18.88;62.28;101061.69;5566460;32;33729;-57
2022/05/06 07:04:24;;;;;;;14.45;9.45;;;;;;;18.83;60.33;101061.84;5568233;32;33575;-55
2022/05/06 07:14:11;;;;;;;13.15;9.57;;;;;;;19.07;62.84;101051.28;5548965;32;34397;-55
2022/05/06 07:17:13;;;;;;;13.50;10.23;;;;;;;19.07;58.26;101048.56;5559940;32;33647;-55
2022/05/06 07:20:21;;;;;;;13.30;9.07;;;;;;;19.05;58.90;101055.47;5558891;32;33677;-55
2022/05/06 07:23:24;;;;;;;13.93;9.98;;;;;;;19.10;65.95;101056.09;5548656;32;33709;-56
2022/05/06 07:26:27;;;;;;;10.93;9.38;;;;;;;19.33;60.57;101055.91;5548689;32;33634;-55
2022/05/06 07:29:31;;;;;;;15.70;10.18;;;;;;;19.18;58.65;101057.22;5566982;32;33723;-55
2022/05/06 07:32:33;;;;;;;11.70;9.25;;;;;;;19.05;58.62;101052.75;5567536;32;33707;-55
2022/05/06 07:35:36;;;;;;;14.45;9.90;;;;;;;18.97;70.01;101060.59;5566926;32;34940;-55
2022/05/06 07:38:38;;;;;;;14.10;10.75;;;;;;;19.06;60.66;101048.91;5566929;32;33622;-55
2022/05/06 07:41:43;;;;;;;14.32;9.68;;;;;;;19.32;59.73;101059.75;5568025;32;34275;-55
2022/05/06 07:44:45;;;;;;;13.15;10.15;;;;;;;19.29;63.74;101063.09;5565904;32;33554;-55
2022/05/06 07:47:47;;;;;;;16.35;10.40;;;;;;;19.43;60.95;101061.78;5562522;32;34366;-55
2022/05/06 07:50:58;;;;;;;11.80;9.75;;;;;;;19.25;58.16;101062.94;5566018;32;33941;-56
2022/05/06 07:54:02;;;;;;;13.73;9.75;;;;;;;19.30;61.18;101061.97;5557767;32;33574;-56
2022/05/06 07:57:04;;;;;;;12.43;9.82;;;;;;;19.35;58.94;101062.62;5561510;32;33631;-55
2022/05/06 08:00:07;;;;;;;12.27;9.05;;;;;;;19.54;59.71;101056.81;5565696;32;33650;-55
2022/05/06 08:06:34;;;;;;;11.68;9.27;;;;;;;19.70;58.16;101049.78;5564876;32;34299;-55
2022/05/06 08:09:36;;;;;;;12.95;9.65;;;;;;;19.67;57.50;101047.69;5559971;32;34743;-55
2022/05/06 08:12:38;;;;;;;12.05;10.15;;;;;;;19.84;57.64;101059.66;5564590;32;34405;-55
2022/05/06 08:15:40;;;;;;;9.45;7.93;;;;;;;19.85;55.01;101053.06;5565576;32;34372;-55
2022/05/06 08:18:43;;;;;;;12.10;8.90;;;;;;;19.92;63.78;101062.31;5564106;32;33605;-56
2022/05/06 08:21:45;;;;;;;18.58;8.65;;;;;;;20.02;61.45;101063.87;5564853;32;34183;-56
2022/05/06 08:24:48;;;;;;;18.35;8.65;;;;;;;20.16;59.49;101056.31;5556501;32;33637;-55
2022/05/06 08:28:10;;;;;;;14.20;8.90;;;;;;;20.08;57.46;101051.69;5556869;32;33199;-56
2022/05/06 08:31:12;;;;;;;9.65;8.45;;;;;;;20.10;55.03;101060.31;5564437;32;34389;-56
2022/05/06 08:34:14;;;;;;;16.95;8.90;;;;;;;20.13;60.61;101062.41;5565271;32;33710;-55
2022/05/06 08:37:21;;;;;;;15.27;9.00;;;;;;;20.28;59.12;101047.41;5565587;32;33580;-55
2022/05/06 08:40:26;;;;;;;18.58;8.73;;;;;;;20.45;53.92;101053.87;5564361;32;33363;-56
2022/05/06 08:43:28;;;;;;;10.65;8.13;;;;;;;20.57;57.94;101057.50;5565216;32;33725;-55
2022/05/06 08:53:14;;;;;;;14.40;7.12;;;;;;;20.69;53.81;101059.50;5564184;32;34428;-55
2022/05/06 08:56:16;;;;;;;16.83;8.02;;;;;;;20.76;52.58;101057.06;5561773;32;32133;-56
2022/05/06 08:59:18;;;;;;;10.27;7.03;;;;;;;20.67;51.92;101055.53;5561353;32;35683;-53
2022/05/06 09:02:21;;;;;;;14.07;7.25;;;;;;;20.60;54.02;101056.84;5567821;31;31829;-53
2022/05/06 09:05:23;;;;;;;8.93;7.40;;;;;;;20.62;57.05;101056.50;5566814;32;33906;-53
2022/05/06 09:08:36;;;;;;;9.65;7.03;;;;;;;20.75;56.66;101060.09;5567079;32;33581;-53
2022/05/06 09:18:44;;;;;;;17.73;8.48;;;;;;;20.98;57.60;101046.94;5543854;32;33438;-53
2022/05/06 09:22:06;;;;;;;13.62;8.07;;;;;;;20.99;53.60;101056.69;5545818;32;34273;-52
2022/05/06 09:25:08;;;;;;;7.12;6.22;;;;;;;20.99;52.41;101057.53;5567123;32;34463;-53
2022/05/06 09:28:22;;;;;;;23.85;8.05;;;;;;;21.06;58.09;101054.25;5568405;31;33331;-53
2022/05/06 09:31:25;;;;;;;17.77;7.05;;;;;;;21.06;54.12;101054.25;5564878;32;33701;-52
2022/05/06 09:34:28;;;;;;;13.23;6.45;;;;;;;21.16;52.72;101053.00;5564985;32;33531;-55
2022/05/06 09:37:39;;;;;;;8.98;6.72;;;;;;;21.23;51.19;101058.75;5558647;32;34430;-53
2022/05/06 09:40:41;;;;;;;11.95;7.40;;;;;;;21.21;53.86;101053.63;5564900;32;34523;-53
2022/05/06 09:43:58;;;;;;;9.90;7.10;;;;;;;21.18;53.99;101054.28;5560979;32;34259;-53
2022/05/06 09:47:11;;;;;;;7.93;5.95;;;;;;;21.28;52.74;101050.34;5565198;32;33293;-53
2022/05/06 09:50:13;;;;;;;10.27;5.82;;;;;;;21.32;52.00;101040.34;5565229;32;33781;-53
2022/05/06 09:53:17;;;;;;;8.52;5.87;;;;;;;21.44;56.19;101047.81;5559853;32;33615;-55
2022/05/06 09:56:20;;;;;;;10.52;5.65;;;;;;;21.50;49.78;101047.25;5563587;32;33522;-54
2022/05/06 10:04:05;;;;;;;7.80;5.57;;;;;;;21.64;51.81;101043.41;5553552;32;34342;-53
2022/05/06 10:07:12;;;;;;;8.93;6.15;;;;;;;21.72;49.49;101037.88;5558379;32;33336;-54
2022/05/06 10:10:20;;;;;;;8.27;6.07;;;;;;;21.84;51.45;101037.06;5563276;32;34352;-53
2022/05/06 10:13:25;;;;;;;8.55;6.43;;;;;;;21.89;47.68;101039.59;5563723;32;34341;-54
2022/05/06 10:16:35;;;;;;;9.68;6.43;;;;;;;21.85;48.76;101035.12;5567815;32;34347;-53
2022/05/06 10:19:37;;;;;;;14.15;6.30;;;;;;;21.99;47.29;101038.34;5559910;32;34454;-53
2022/05/06 10:22:59;;;;;;;10.32;6.87;;;;;;;21.99;49.44;101036.41;5565543;31;34293;-54
2022/05/06 10:26:01;;;;;;;8.70;6.55;;;;;;;21.95;50.49;101043.69;5567352;32;34374;-53
2022/05/06 10:32:55;;;;;;;10.40;6.07;;;;;;;22.12;48.18;101028.19;5559588;32;33671;-54
2022/05/06 10:35:57;;;;;;;8.13;6.43;;;;;;;22.10;53.59;101034.00;5560273;32;34470;-53
2022/05/06 10:38:59;;;;;;;10.73;6.35;;;;;;;22.18;48.49;101026.84;5565197;32;33434;-53
2022/05/06 10:42:09;;;;;;;9.93;6.05;;;;;;;22.26;48.76;101025.94;5559994;32;34228;-53
2022/05/06 10:45:22;;;;;;;11.98;5.80;;;;;;;22.30;48.15;101029.56;5565049;32;33568;-53
2022/05/06 10:48:24;;;;;;;9.00;6.03;;;;;;;22.39;46.47;101024.78;5565007;32;32444;-53
2022/05/06 10:51:27;;;;;;;10.25;5.78;;;;;;;22.41;45.55;101019.75;5563159;32;33650;-54
2022/05/06 10:54:30;;;;;;;8.77;6.10;;;;;;;22.38;47.32;101014.97;5563085;32;34222;-53
2022/05/06 10:57:45;;;;;;;7.55;5.75;;;;;;;22.41;47.56;101011.56;5564708;32;33690;-53
2022/05/06 11:00:48;;;;;;;9.35;5.35;;;;;;;22.41;46.85;101006.09;5562414;32;33797;-53
2022/05/06 11:03:51;;;;;;;6.50;5.45;;;;;;;22.45;48.33;101007.00;5560635;32;33767;-53
2022/05/06 11:07:10;;;;;;;9.20;5.97;;;;;;;22.45;46.61;101004.28;5559109;32;33774;-53
2022/05/06 11:10:16;;;;;;;8.35;5.85;;;;;;;22.44;45.76;100996.41;5549306;32;34561;-53
2022/05/06 11:13:23;;;;;;;9.50;6.10;;;;;;;22.40;47.87;100998.25;5568056;32;33406;-53
2022/05/06 11:16:25;;;;;;;7.68;5.53;;;;;;;22.47;47.82;100995.72;5563969;32;33696;-53
2022/05/06 11:19:34;;;;;;;6.22;4.95;;;;;;;22.57;47.66;101000.72;5566341;32;33670;-53
2022/05/06 11:22:39;;;;;;;7.60;5.37;;;;;;;22.69;45.41;100994.41;5566504;32;34396;-53
2022/05/06 11:25:50;;;;;;;7.00;4.57;;;;;;;22.74;45.72;100994.16;5567514;32;33654;-53
2022/05/06 11:29:05;;;;;;;6.45;4.72;;;;;;;22.69;45.43;100986.22;5567627;32;33743;-53
2022/05/06 11:32:11;;;;;;;8.68;4.87;;;;;;;22.69;45.21;100983.50;5566401;32;32316;-53
2022/05/06 11:35:20;;;;;;;5.75;4.60;;;;;;;22.73;45.54;100984.38;5567507;32;34426;-54
2022/05/06 11:38:37;;;;;;;5.90;4.75;;;;;;;22.74;46.02;100975.03;5565186;32;33681;-54
2022/05/06 11:41:39;;;;;;;6.75;5.35;;;;;;;22.78;46.82;100980.59;5556904;32;33289;-54
2022/05/06 11:48:07;;;;;;;6.03;4.87;;;;;;;22.84;45.96;100985.47;5565371;32;33744;-53
2022/05/06 11:51:12;;;;;;;9.13;5.45;;;;;;;22.83;43.72;100978.41;5563258;32;33654;-53
2022/05/06 11:54:16;;;;;;;10.10;4.70;;;;;;;22.75;43.81;100976.63;5565932;32;33601;-53
2022/05/06 11:57:18;;;;;;;7.85;5.20;;;;;;;22.79;43.67;100976.72;5567633;32;34447;-53
2022/05/06 12:00:21;;;;;;;6.45;4.32;;;;;;;22.72;42.33;100966.41;5551619;32;33987;-53
2022/05/06 12:03:29;;;;;;;7.00;4.47;;;;;;;22.77;44.95;100968.06;5548270;32;33610;-53
2022/05/06 12:06:51;;;;;;;7.95;5.12;;;;;;;22.73;45.29;100971.50;5555787;32;34362;-53
2022/05/06 12:09:54;;;;;;;8.20;4.70;;;;;;;22.81;45.97;100966.22;5557065;32;34313;-53
2022/05/06 12:13:07;;;;;;;5.60;4.68;;;;;;;22.91;44.74;100960.25;5550291;32;34320;-53
2022/05/06 12:16:12;;;;;;;5.55;4.60;;;;;;;22.95;44.57;100959.25;5567337;32;33710;-53
2022/05/06 12:19:17;;;;;;;7.07;4.35;;;;;;;22.99;43.83;100959.34;5567700;32;34394;-53
2022/05/06 12:22:26;;;;;;;6.30;4.60;;;;;;;22.90;44.82;100956.72;5567762;32;33599;-53
2022/05/06 12:25:28;;;;;;;5.90;4.05;;;;;;;22.96;45.61;100951.84;5569879;32;33793;-53
2022/05/06 12:28:31;;;;;;;6.85;4.18;;;;;;;23.01;43.35;100961.72;5570016;32;33396;-54
2022/05/06 12:31:34;;;;;;;8.07;4.00;;;;;;;22.99;42.09;100956.59;5570055;32;33633;-53
2022/05/06 12:34:36;;;;;;;5.90;4.18;;;;;;;23.10;40.64;100959.63;5567180;32;33714;-53
2022/05/06 12:37:56;;;;;;;7.07;3.97;;;;;;;23.08;41.25;100951.78;5570417;32;33284;-53
2022/05/06 12:40:58;;;;;;;6.43;3.75;;;;;;;23.16;39.40;100947.28;5570204;32;33205;-53
2022/05/06 12:44:36;;;;;;;4.50;3.67;;;;;;;23.13;39.32;100950.72;5569448;32;33745;-53
2022/05/06 12:50:59;;;;;;;7.65;3.47;;;;;;;23.13;39.73;100931.56;5550657;32;33070;-53
2022/05/06 12:54:01;;;;;;;8.55;4.20;;;;;;;23.14;39.28;100936.69;5560522;32;33367;-53
2022/05/06 12:57:04;;;;;;;7.53;4.18;;;;;;;23.21;39.77;100930.59;5563689;32;33805;-53
2022/05/06 13:00:07;;;;;;;7.72;4.15;;;;;;;23.21;39.72;100925.94;5569824;32;34433;-53
2022/05/06 13:03:09;;;;;;;4.80;3.75;;;;;;;23.21;41.80;100936.88;5569605;32;34267;-53
2022/05/06 13:06:11;;;;;;;10.02;3.62;;;;;;;23.21;39.81;100925.13;5569631;32;33620;-53
2022/05/06 13:09:14;;;;;;;5.32;3.75;;;;;;;23.18;40.46;100917.66;5570116;32;33649;-53
2022/05/06 13:12:18;;;;;;;5.05;3.72;;;;;;;23.14;40.83;100920.25;5569160;32;33339;-53
2022/05/06 13:15:20;;;;;;;6.12;3.80;;;;;;;23.16;38.85;100923.47;5569907;32;33944;-54
2022/05/06 13:18:22;;;;;;;5.12;4.28;;;;;;;23.18;42.76;100923.12;5567685;32;34283;-53
2022/05/06 13:21:24;;;;;;;14.25;4.55;;;;;;;23.26;39.67;100926.81;5569829;32;33824;-53
2022/05/06 13:24:33;;;;;;;5.30;4.32;;;;;;;23.27;41.32;100923.72;5569684;32;33609;-53
2022/05/06 13:27:35;;;;;;;13.27;4.90;;;;;;;23.20;39.53;100924.34;5568142;32;34208;-52
2022/05/06 13:30:37;;;;;;;12.25;3.80;;;;;;;23.15;41.56;100918.34;5568985;32;34147;-53
2022/05/06 13:33:39;;;;;;;25.02;5.82;;;;;;;23.13;40.83;100915.94;5569013;32;34366;-53
2022/05/06 13:36:42;;;;;;;10.25;4.32;;;;;;;23.16;41.65;100911.72;5568974;32;33712;-54
2022/05/06 13:39:44;;;;;;;9.02;3.90;;;;;;;23.16;42.21;100909.78;5569173;32;33776;-53
2022/05/06 13:42:46;;;;;;;10.60;3.90;;;;;;;23.15;40.79;100907.41;5568468;32;33740;-53
2022/05/06 13:45:49;;;;;;;12.23;4.30;;;;;;;23.08;42.15;100909.94;5569086;32;33695;-53
2022/05/06 13:48:51;;;;;;;16.45;5.35;;;;;;;23.11;42.06;100907.31;5568336;32;33789;-53
2022/05/06 13:51:53;;;;;;;9.85;4.45;;;;;;;23.16;40.23;100911.72;5568864;32;33363;-53
2022/05/06 13:54:59;;;;;;;13.65;4.95;;;;;;;23.11;40.95;100907.31;5569061;32;33719;-53
2022/05/06 14:01:40;;;;;;;8.57;4.25;;;;;;;23.12;39.88;100900.69;5569029;32;34425;-52
2022/05/06 14:04:43;;;;;;;6.97;4.30;;;;;;;23.12;40.77;100894.44;5569038;32;33783;-53
2022/05/06 14:08:00;;;;;;;10.60;3.65;;;;;;;23.11;41.49;100901.84;5567508;32;34101;-53
2022/05/06 14:11:04;;;;;;;13.15;4.65;;;;;;;23.06;39.94;100893.09;5568702;32;34362;-52
2022/05/06 14:14:06;;;;;;;8.50;4.00;;;;;;;23.03;41.20;100894.59;5567013;32;33649;-52
2022/05/06 14:17:08;;;;;;;7.95;4.00;;;;;;;23.06;40.81;100901.31;5569191;32;34446;-53
2022/05/06 14:20:13;;;;;;;8.90;3.80;;;;;;;23.02;40.11;100890.28;5557784;32;33880;-54
2022/05/06 14:23:16;;;;;;;8.15;4.20;;;;;;;23.05;41.89;100888.78;5560676;32;34257;-53
2022/05/06 14:26:18;;;;;;;6.30;3.95;;;;;;;23.13;42.51;100887.81;5552627;32;33909;-53
2022/05/06 14:29:21;;;;;;;5.37;3.90;;;;;;;23.14;41.88;100883.94;5558944;32;34292;-54
2022/05/06 14:32:24;;;;;;;7.75;3.80;;;;;;;23.13;41.31;100888.59;5553267;32;34297;-53
2022/05/06 14:35:26;;;;;;;6.37;3.70;;;;;;;23.13;41.69;100880.41;5569202;32;34478;-53
2022/05/06 14:38:28;;;;;;;9.75;4.18;;;;;;;23.07;49.08;100886.50;5568847;32;34444;-53
2022/05/06 14:41:30;;;;;;;10.50;4.45;;;;;;;23.05;44.10;100881.37;5569110;32;34361;-52
2022/05/06 14:44:33;;;;;;;5.20;3.87;;;;;;;23.08;44.10;100877.94;5565462;32;34202;-53
2022/05/06 14:47:35;;;;;;;7.90;4.25;;;;;;;22.98;44.25;100878.47;5559751;32;33641;-54
2022/05/06 14:50:37;;;;;;;7.03;4.05;;;;;;;22.97;43.73;100874.13;5567487;32;32200;-53
2022/05/06 14:53:40;;;;;;;6.85;4.20;;;;;;;23.01;43.32;100879.69;5567476;32;33760;-53
2022/05/06 14:56:42;;;;;;;5.47;4.10;;;;;;;23.07;42.81;100875.56;5569361;32;33767;-53
2022/05/06 14:59:44;;;;;;;6.93;4.10;;;;;;;23.08;48.25;100864.28;5550595;32;34344;-53
2022/05/06 15:02:46;;;;;;;7.97;4.12;;;;;;;23.03;43.06;100863.75;5549538;32;34212;-53
2022/05/06 15:05:49;;;;;;;6.00;4.37;;;;;;;22.98;43.90;100873.78;5565093;32;34461;-53
2022/05/06 15:08:51;;;;;;;9.68;4.53;;;;;;;23.05;45.15;100866.91;5568265;32;33790;-54
